createdAt,value
2019-04-01T00:01:52.845Z,100683.34
2019-04-01T00:04:23.222Z,100684.55
2019-04-01T00:06:53.601Z,100684.44
2019-04-01T00:09:23.884Z,100682.08
2019-04-01T00:11:54.108Z,100679.09
2019-04-01T00:14:25.128Z,100677.29
2019-04-01T00:16:55.350Z,100679.41
2019-04-01T00:19:26.383Z,100684.04
2019-04-01T00:21:56.497Z,100677.85
2019-04-01T00:24:26.776Z,100681.27
2019-04-01T00:26:57.066Z,100681.70
2019-04-01T00:29:27.781Z,100688.63
2019-04-01T00:31:58.077Z,100686.14
2019-04-01T00:34:28.257Z,100684.36
2019-04-01T00:36:58.466Z,100684.86
2019-04-01T00:39:28.774Z,100683.88
2019-04-01T00:42:05.328Z,100676.77
2019-04-01T00:44:35.688Z,100684.48
2019-04-01T00:47:05.946Z,100684.02
2019-04-01T00:49:36.261Z,100678.86
2019-04-01T00:52:06.669Z,100683.16
2019-04-01T00:54:37.271Z,100674.20
2019-04-01T00:57:08.142Z,100676.25
2019-04-01T00:59:38.407Z,100682.52
2019-04-01T01:02:08.852Z,100675.20
2019-04-01T01:04:43.479Z,100673.59
2019-04-01T01:07:15.321Z,100669.88
2019-04-01T01:09:47.266Z,100669.55
2019-04-01T01:12:18.175Z,100671.07
2019-04-01T01:14:48.596Z,100664.88
2019-04-01T01:17:19.107Z,100668.72
2019-04-01T01:19:49.802Z,100666.56
2019-04-01T01:22:20.250Z,100666.58
2019-04-01T01:24:50.766Z,100668.72
2019-04-01T01:27:21.153Z,100668.15
2019-04-01T01:29:51.874Z,100661.63
2019-04-01T01:32:22.543Z,100661.23
2019-04-01T01:34:52.921Z,100667.67
2019-04-01T01:37:26.976Z,100664.64
2019-04-01T01:39:58.119Z,100666.81
2019-04-01T01:42:28.479Z,100663.80
2019-04-01T01:44:59.029Z,100663.18
2019-04-01T01:47:29.430Z,100657.63
2019-04-01T01:49:59.793Z,100654.11
2019-04-01T01:52:30.185Z,100658.28
2019-04-01T01:55:00.701Z,100656.30
2019-04-01T01:57:31.004Z,100654.22
2019-04-01T02:00:01.392Z,100657.16
2019-04-01T02:02:31.842Z,100655.05
2019-04-01T02:05:02.223Z,100655.07
2019-04-01T02:07:32.712Z,100651.69
2019-04-01T02:10:03.612Z,100644.91
2019-04-01T02:12:34.043Z,100648.30
2019-04-01T02:15:04.886Z,100646.14
2019-04-01T02:17:35.331Z,100648.67
2019-04-01T02:20:06.075Z,100643.71
2019-04-01T02:22:36.487Z,100648.94
2019-04-01T02:25:07.174Z,100649.34
2019-04-01T02:27:37.962Z,100641.44
2019-04-01T02:30:08.476Z,100639.25
2019-04-01T02:32:38.895Z,100636.58
2019-04-01T02:35:09.635Z,100641.53
2019-04-01T02:37:40.040Z,100638.50
2019-04-01T02:40:10.745Z,100630.20
2019-04-01T02:42:41.207Z,100633.76
2019-04-01T02:45:11.835Z,100631.62
2019-04-01T02:47:42.227Z,100628.48
2019-04-01T02:50:12.937Z,100638.29
2019-04-01T02:52:43.327Z,100638.66
2019-04-01T02:55:17.956Z,100636.18
2019-04-01T02:57:48.362Z,100636.72
2019-04-01T03:00:20.340Z,100627.41
2019-04-01T03:02:50.784Z,100630.44
2019-04-01T03:05:21.095Z,100626.59
2019-04-01T03:07:51.507Z,100627.41
2019-04-01T03:10:21.880Z,100637.55
2019-04-01T03:12:52.278Z,100634.94
2019-04-01T03:15:22.945Z,100634.39
2019-04-01T03:17:53.531Z,100642.52
2019-04-01T03:20:24.178Z,100639.46
2019-04-01T03:22:54.547Z,100635.13
2019-04-01T03:25:24.869Z,100633.77
2019-04-01T03:27:55.959Z,100638.50
2019-04-01T03:30:26.380Z,100638.09
2019-04-01T03:32:56.743Z,100641.75
2019-04-01T03:35:27.216Z,100638.02
2019-04-01T03:37:57.515Z,100632.83
2019-04-01T03:40:28.301Z,100638.02
2019-04-01T03:42:59.090Z,100635.80
2019-04-01T03:45:29.538Z,100634.56
2019-04-01T03:48:00.086Z,100637.89
2019-04-01T03:50:30.532Z,100636.34
2019-04-01T03:53:00.821Z,100642.33
2019-04-01T03:55:31.151Z,100642.69
2019-04-01T03:58:01.588Z,100642.40
2019-04-01T04:00:31.899Z,100650.92
2019-04-01T04:03:02.297Z,100643.34
2019-04-01T04:05:33.129Z,100639.94
2019-04-01T04:08:03.529Z,100638.69
2019-04-01T04:10:33.945Z,100646.28
2019-04-01T04:13:04.376Z,100644.99
2019-04-01T04:15:34.962Z,100638.62
2019-04-01T04:18:05.745Z,100644.31
2019-04-01T04:20:36.053Z,100647.70
2019-04-01T04:23:06.468Z,100649.35
2019-04-01T04:25:36.968Z,100647.16
2019-04-01T04:28:07.774Z,100645.25
2019-04-01T04:30:38.153Z,100645.17
2019-04-01T04:33:08.605Z,100648.23
2019-04-01T04:35:39.016Z,100645.00
2019-04-01T04:38:09.458Z,100642.66
2019-04-01T04:40:41.148Z,100649.92
2019-04-01T04:43:11.667Z,100643.66
2019-04-01T04:45:42.332Z,100645.05
2019-04-01T04:48:12.759Z,100644.60
2019-04-01T04:50:43.120Z,100647.03
2019-04-01T04:53:13.615Z,100649.06
2019-04-01T04:55:45.993Z,100652.38
2019-04-01T04:58:16.375Z,100650.17
2019-04-01T05:00:47.635Z,100655.59
2019-04-01T05:03:18.087Z,100645.67
2019-04-01T05:05:48.904Z,100650.39
2019-04-01T05:08:20.190Z,100646.09
2019-04-01T05:10:50.654Z,100646.86
2019-04-01T05:13:20.979Z,100652.41
2019-04-01T05:15:51.393Z,100651.55
2019-04-01T05:18:21.803Z,100650.33
2019-04-01T05:20:52.672Z,100658.70
2019-04-01T05:23:25.189Z,100652.62
2019-04-01T05:25:56.076Z,100657.41
2019-04-01T05:28:28.982Z,100660.41
2019-04-01T05:31:01.732Z,100657.07
2019-04-01T05:33:35.124Z,100660.50
2019-04-01T05:36:05.858Z,100662.73
2019-04-01T05:38:36.429Z,100661.97
2019-04-01T05:41:07.655Z,100664.35
2019-04-01T05:43:38.119Z,100669.99
2019-04-01T05:46:08.557Z,100674.71
2019-04-01T05:48:38.967Z,100673.97
2019-04-01T05:51:09.354Z,100668.52
2019-04-01T05:53:39.821Z,100670.80
2019-04-01T05:56:11.306Z,100670.64
2019-04-01T05:58:43.359Z,100668.97
2019-04-01T06:01:21.592Z,100668.63
2019-04-01T06:03:53.031Z,100671.02
2019-04-01T06:06:23.445Z,100664.25
2019-04-01T06:08:54.127Z,100663.14
2019-04-01T06:11:24.487Z,100671.48
2019-04-01T06:13:55.160Z,100671.83
2019-04-01T06:16:25.664Z,100677.52
2019-04-01T06:18:56.099Z,100675.42
2019-04-01T06:21:27.122Z,100675.59
2019-04-01T06:23:58.529Z,100676.58
2019-04-01T06:26:29.175Z,100675.03
2019-04-01T06:28:59.503Z,100673.88
2019-04-01T06:31:30.164Z,100676.59
2019-04-01T06:34:00.758Z,100672.30
2019-04-01T06:36:31.228Z,100672.43
2019-04-01T06:39:01.807Z,100668.95
2019-04-01T06:41:32.290Z,100673.31
2019-04-01T06:44:02.690Z,100673.38
2019-04-01T06:46:33.067Z,100676.80
2019-04-01T06:49:04.178Z,100664.77
2019-04-01T06:51:35.081Z,100674.30
2019-04-01T06:54:05.990Z,100668.76
2019-04-01T06:56:36.392Z,100667.02
2019-04-01T06:59:06.879Z,100668.74
2019-04-01T07:01:37.255Z,100666.55
2019-04-01T07:04:08.195Z,100669.59
2019-04-01T07:06:38.888Z,100669.17
2019-04-01T07:09:09.314Z,100665.72
2019-04-01T07:11:39.840Z,100664.88
2019-04-01T07:14:10.355Z,100660.96
2019-04-01T07:16:40.872Z,100663.13
2019-04-01T07:19:11.319Z,100666.16
2019-04-01T07:21:42.603Z,100662.23
2019-04-01T07:24:13.365Z,100658.72
2019-04-01T07:26:45.005Z,100656.45
2019-04-01T07:29:15.507Z,100649.88
2019-04-01T07:31:45.937Z,100655.34
2019-04-01T07:34:17.286Z,100655.61
2019-04-01T07:36:47.748Z,100651.17
2019-04-01T07:39:18.204Z,100651.31
2019-04-01T07:41:48.611Z,100643.78
2019-04-01T07:44:19.116Z,100645.71
2019-04-01T07:46:49.432Z,100643.66
2019-04-01T07:49:20.268Z,100644.00
2019-04-01T07:51:50.810Z,100639.92
2019-04-01T07:54:21.555Z,100643.03
2019-04-01T07:56:51.957Z,100645.53
2019-04-01T07:59:22.792Z,100643.42
2019-04-01T08:01:53.969Z,100643.31
2019-04-01T08:04:24.526Z,100637.17
2019-04-01T08:06:55.204Z,100636.11
2019-04-01T08:09:25.759Z,100631.62
2019-04-01T08:11:56.280Z,100630.33
2019-04-01T08:14:26.980Z,100635.63
2019-04-01T08:16:58.670Z,100635.48
2019-04-01T08:19:29.415Z,100624.53
2019-04-01T08:22:00.103Z,100641.62
2019-04-01T08:24:32.132Z,100636.84
2019-04-01T08:27:02.904Z,100642.92
2019-04-01T08:29:33.387Z,100630.07
2019-04-01T08:32:04.528Z,100633.97
2019-04-01T08:34:35.137Z,100637.14
2019-04-01T08:37:05.638Z,100639.70
2019-04-01T08:39:37.553Z,100636.05
2019-04-01T08:42:07.891Z,100624.16
2019-04-01T08:44:38.715Z,100634.12
2019-04-01T08:47:09.478Z,100631.28
2019-04-01T08:49:39.915Z,100636.02
2019-04-01T08:52:10.619Z,100627.02
2019-04-01T08:54:41.081Z,100623.22
2019-04-01T08:57:11.597Z,100612.79
2019-04-01T08:59:42.513Z,100611.70
2019-04-01T09:02:17.985Z,100613.86
2019-04-01T09:04:45.669Z,100613.71
2019-04-01T09:07:16.444Z,100613.63
2019-04-01T09:09:48.365Z,100605.41
2019-04-01T09:12:19.006Z,100602.45
2019-04-01T09:14:51.884Z,100600.14
2019-04-01T09:17:23.346Z,100596.67
2019-04-01T09:19:54.310Z,100612.80
2019-04-01T09:22:25.128Z,100609.69
2019-04-01T09:24:55.506Z,100595.17
2019-04-01T09:27:25.927Z,100598.52
2019-04-01T09:29:56.387Z,100596.27
2019-04-01T09:32:26.727Z,100592.75
2019-04-01T09:34:57.531Z,100590.88
2019-04-01T09:37:28.233Z,100585.22
2019-04-01T09:39:58.806Z,100581.84
2019-04-01T09:42:29.628Z,100580.14
2019-04-01T09:45:00.046Z,100584.75
2019-04-01T09:47:30.501Z,100583.30
2019-04-01T09:50:01.289Z,100572.87
2019-04-01T09:52:31.717Z,100563.83
2019-04-01T09:55:05.875Z,100564.68
2019-04-01T09:57:34.598Z,100563.28
2019-04-01T10:00:05.988Z,100557.92
2019-04-01T10:02:36.338Z,100555.98
2019-04-01T10:05:07.430Z,100554.42
2019-04-01T10:07:38.087Z,100545.69
2019-04-01T10:10:09.024Z,100546.89
2019-04-01T10:12:39.515Z,100541.84
2019-04-01T10:15:10.581Z,100550.02
2019-04-01T10:17:41.001Z,100545.37
2019-04-01T10:20:12.850Z,100541.89
2019-04-01T10:22:43.285Z,100538.41
2019-04-01T10:25:13.777Z,100535.67
2019-04-01T10:27:44.262Z,100529.95
2019-04-01T10:30:15.300Z,100525.81
2019-04-01T10:32:45.758Z,100531.17
2019-04-01T10:35:17.587Z,100521.85
2019-04-01T10:37:48.098Z,100516.91
2019-04-01T10:40:20.523Z,100513.98
2019-04-01T10:42:50.902Z,100515.84
2019-04-01T10:45:22.302Z,100517.48
2019-04-01T10:47:52.844Z,100504.67
2019-04-01T10:50:23.713Z,100508.37
2019-04-01T10:52:54.175Z,100490.70
2019-04-01T10:55:24.628Z,100506.02
2019-04-01T10:57:55.558Z,100492.64
2019-04-01T11:00:26.679Z,100495.58
2019-04-01T11:02:57.102Z,100489.75
2019-04-01T11:05:27.686Z,100486.11
2019-04-01T11:07:58.706Z,100482.45
2019-04-01T11:10:29.811Z,100474.27
2019-04-01T11:13:00.269Z,100474.67
2019-04-01T11:15:31.054Z,100467.67
2019-04-01T11:18:01.538Z,100460.55
2019-04-01T11:20:31.989Z,100465.95
2019-04-01T11:23:03.123Z,100463.97
2019-04-01T11:25:34.810Z,100462.06
2019-04-01T11:28:05.755Z,100451.75
2019-04-01T11:30:37.090Z,100446.77
2019-04-01T11:33:08.198Z,100446.09
2019-04-01T11:35:38.718Z,100441.25
2019-04-01T11:38:09.386Z,100441.19
2019-04-01T11:40:40.102Z,100437.33
2019-04-01T11:43:11.029Z,100434.86
2019-04-01T11:45:41.481Z,100429.52
2019-04-01T11:48:12.108Z,100426.00
2019-04-01T11:50:42.569Z,100416.77
2019-04-01T11:53:13.236Z,100420.44
2019-04-01T11:55:43.622Z,100417.44
2019-04-01T11:58:14.320Z,100405.69
2019-04-01T12:00:44.982Z,100403.08
2019-04-01T12:03:15.700Z,100397.05
2019-04-01T12:05:46.141Z,100389.30
2019-04-01T12:08:16.487Z,100388.78
2019-04-01T12:10:46.904Z,100388.44
2019-04-01T12:13:17.379Z,100377.55
2019-04-01T12:15:47.891Z,100388.12
2019-04-01T12:18:18.744Z,100379.91
2019-04-01T12:20:49.173Z,100371.89
2019-04-01T12:23:19.952Z,100370.73
2019-04-01T12:25:50.350Z,100357.48
2019-04-01T12:28:21.054Z,100359.06
2019-04-01T12:30:52.181Z,100359.42
2019-04-01T12:33:25.963Z,100354.52
2019-04-01T12:35:55.744Z,100345.38
2019-04-01T12:38:26.182Z,100348.02
2019-04-01T12:40:56.681Z,100344.66
2019-04-01T12:43:27.160Z,100339.69
2019-04-01T12:45:57.866Z,100342.27
2019-04-01T12:48:28.900Z,100332.81
2019-04-01T12:50:59.546Z,100328.13
2019-04-01T12:53:29.990Z,100326.77
2019-04-01T12:56:00.419Z,100329.48
2019-04-01T12:58:30.860Z,100313.88
2019-04-01T13:01:01.375Z,100312.03
2019-04-01T13:03:31.737Z,100309.20
2019-04-01T13:06:02.167Z,100301.55
2019-04-01T13:08:32.584Z,100302.61
2019-04-01T13:11:03.079Z,100299.70
2019-04-01T13:13:33.516Z,100296.95
2019-04-01T13:16:03.936Z,100291.22
2019-04-01T13:18:37.971Z,100291.05
2019-04-01T13:21:06.646Z,100285.98
2019-04-01T13:23:37.108Z,100276.39
2019-04-01T13:26:07.583Z,100269.27
2019-04-01T13:28:37.925Z,100272.39
2019-04-01T13:31:08.470Z,100268.58
2019-04-01T13:33:38.997Z,100267.84
2019-04-01T13:36:09.447Z,100265.03
2019-04-01T13:38:39.887Z,100262.12
2019-04-01T13:41:13.154Z,100252.71
2019-04-01T13:43:42.431Z,100242.94
2019-04-01T13:46:12.788Z,100248.83
2019-04-01T13:48:56.929Z,100238.06
2019-04-01T13:51:15.459Z,100227.94
2019-04-01T13:53:45.919Z,100239.59
2019-04-01T13:56:16.626Z,100227.61
2019-04-01T13:58:47.159Z,100221.61
2019-04-01T14:01:17.608Z,100219.91
2019-04-01T14:03:48.114Z,100210.50
2019-04-01T14:06:18.485Z,100200.59
2019-04-01T14:08:48.892Z,100205.96
2019-04-01T14:11:20.011Z,100200.56
2019-04-01T14:13:50.412Z,100193.50
2019-04-01T14:16:20.795Z,100196.89
2019-04-01T14:18:51.491Z,100189.02
2019-04-01T14:21:23.390Z,100193.65
2019-04-01T14:23:53.981Z,100193.42
2019-04-01T14:26:24.715Z,100188.09
2019-04-01T14:28:55.242Z,100184.64
2019-04-01T14:31:25.695Z,100174.67
2019-04-01T14:33:56.180Z,100173.08
2019-04-01T14:36:26.834Z,100168.50
2019-04-01T14:38:57.225Z,100167.25
2019-04-01T14:41:27.691Z,100162.20
2019-04-01T14:43:58.191Z,100156.55
2019-04-01T14:46:28.986Z,100156.26
2019-04-01T14:49:00.543Z,100155.63
2019-04-01T14:51:31.693Z,100146.77
2019-04-01T14:54:02.133Z,100149.08
2019-04-01T14:56:32.579Z,100138.28
2019-04-01T14:59:02.945Z,100139.98
2019-04-01T15:01:33.367Z,100132.64
2019-04-01T15:04:03.784Z,100126.89
2019-04-01T15:06:34.242Z,100136.59
2019-04-01T15:09:06.292Z,100129.38
2019-04-01T15:11:36.671Z,100124.25
2019-04-01T15:14:08.574Z,100128.33
2019-04-01T15:16:39.092Z,100126.81
2019-04-01T15:19:12.672Z,100128.80
2019-04-01T15:21:41.674Z,100116.05
2019-04-01T15:24:12.367Z,100116.59
2019-04-01T15:26:43.080Z,100117.30
2019-04-01T15:29:13.531Z,100111.59
2019-04-01T15:31:44.057Z,100105.94
2019-04-01T15:34:14.569Z,100106.33
2019-04-01T15:36:45.040Z,100098.92
2019-04-01T15:39:16.252Z,100097.66
2019-04-01T15:41:46.687Z,100088.48
2019-04-01T15:44:17.219Z,100087.63
2019-04-01T15:46:49.672Z,100086.38
2019-04-01T15:49:20.133Z,100087.22
2019-04-01T15:51:50.974Z,100079.47
2019-04-01T15:54:22.915Z,100078.43
2019-04-01T15:56:53.388Z,100074.55
2019-04-01T15:59:25.481Z,100070.57
2019-04-01T16:01:59.453Z,100072.13
2019-04-01T16:04:32.046Z,100063.06
2019-04-01T16:07:02.782Z,100069.31
2019-04-01T16:09:33.737Z,100066.77
2019-04-01T16:12:05.406Z,100061.38
2019-04-01T16:14:35.847Z,100064.20
2019-04-01T16:17:06.232Z,100057.05
2019-04-01T16:19:37.028Z,100054.82
2019-04-01T16:22:07.445Z,100054.47
2019-04-01T16:24:40.215Z,100052.06
2019-04-01T16:27:10.684Z,100051.66
2019-04-01T16:29:41.478Z,100054.45
2019-04-01T16:32:11.961Z,100045.52
2019-04-01T16:34:42.658Z,100049.15
2019-04-01T16:37:13.090Z,100039.07
2019-04-01T16:39:43.571Z,100047.21
2019-04-01T16:42:13.977Z,100044.12
2019-04-01T16:44:44.403Z,100044.64
2019-04-01T16:47:17.511Z,100042.86
2019-04-01T16:49:49.218Z,100041.03
2019-04-01T16:52:22.734Z,100035.84
2019-04-01T16:55:02.280Z,100035.67
2019-04-01T16:57:32.717Z,100035.06
2019-04-01T17:00:03.184Z,100029.27
2019-04-01T17:02:33.969Z,100028.94
2019-04-01T17:05:04.580Z,100030.57
2019-04-01T17:07:35.843Z,100035.88
2019-04-01T17:10:07.111Z,100026.23
2019-04-01T17:12:40.230Z,100030.16
2019-04-01T17:15:10.605Z,100030.80
2019-04-01T17:17:41.123Z,100025.72
2019-04-01T17:20:12.548Z,100027.81
2019-04-01T17:22:43.042Z,100027.33
2019-04-01T17:25:15.678Z,100028.00
2019-04-01T17:27:46.077Z,100025.63
2019-04-01T17:30:16.894Z,100023.54
2019-04-01T17:32:49.706Z,100027.48
2019-04-01T17:35:20.306Z,100032.21
2019-04-01T17:37:50.900Z,100032.03
2019-04-01T17:40:22.809Z,100028.92
2019-04-01T17:42:55.467Z,100026.25
2019-04-01T17:45:34.297Z,100024.24
2019-04-01T17:48:05.225Z,100025.97
2019-04-01T17:50:35.688Z,100027.37
2019-04-01T17:53:08.574Z,100022.77
2019-04-01T17:55:39.626Z,100030.06
2019-04-01T17:58:10.779Z,100025.80
2019-04-01T18:00:44.541Z,100031.03
2019-04-01T18:03:16.069Z,100027.11
2019-04-01T18:05:46.719Z,100025.75
2019-04-01T18:08:17.101Z,100022.40
2019-04-01T18:10:48.874Z,100027.12
2019-04-01T18:13:20.287Z,100029.94
2019-04-01T18:15:51.725Z,100030.69
2019-04-01T18:18:27.036Z,100029.66
2019-04-01T18:20:57.737Z,100026.52
2019-04-01T18:23:28.257Z,100029.19
2019-04-01T18:25:58.643Z,100034.08
2019-04-01T18:28:29.050Z,100036.68
2019-04-01T18:30:59.855Z,100034.66
2019-04-01T18:33:30.774Z,100041.70
2019-04-01T18:36:01.214Z,100045.62
2019-04-01T18:38:31.706Z,100050.00
2019-04-01T18:41:02.341Z,100053.25
2019-04-01T18:43:32.713Z,100056.11
2019-04-01T18:46:03.479Z,100054.88
2019-04-01T18:48:34.191Z,100060.84
2019-04-01T18:51:04.889Z,100059.33
2019-04-01T18:53:36.311Z,100059.34
2019-04-01T18:56:07.439Z,100064.20
2019-04-01T18:58:37.807Z,100070.98
2019-04-01T19:01:08.189Z,100067.29
2019-04-01T19:03:41.427Z,100067.87
2019-04-01T19:06:11.182Z,100068.09
2019-04-01T19:08:41.638Z,100068.15
2019-04-01T19:11:12.124Z,100068.30
2019-04-01T19:13:42.753Z,100070.55
2019-04-01T19:16:16.430Z,100068.03
2019-04-01T19:18:45.408Z,100075.03
2019-04-01T19:21:15.883Z,100076.39
2019-04-01T19:23:46.285Z,100074.89
2019-04-01T19:26:16.675Z,100072.43
2019-04-01T19:28:47.503Z,100083.36
2019-04-01T19:31:17.939Z,100080.05
2019-04-01T19:33:48.904Z,100078.48
2019-04-01T19:36:19.272Z,100081.70
2019-04-01T19:38:49.599Z,100078.25
2019-04-01T19:41:20.577Z,100078.17
2019-04-01T19:43:51.452Z,100082.61
2019-04-01T19:46:21.884Z,100081.86
2019-04-01T19:48:52.561Z,100089.19
2019-04-01T19:51:22.893Z,100085.73
2019-04-01T19:53:53.550Z,100083.30
2019-04-01T19:56:24.550Z,100082.47
2019-04-01T19:58:54.921Z,100082.55
2019-04-01T20:01:25.505Z,100083.48
2019-04-01T20:03:56.774Z,100082.32
2019-04-01T20:06:27.200Z,100077.84
2019-04-01T20:08:57.576Z,100077.04
2019-04-01T20:11:27.979Z,100076.30
2019-04-01T20:13:58.336Z,100078.97
2019-04-01T20:16:28.730Z,100080.34
2019-04-01T20:18:59.027Z,100079.20
2019-04-01T20:21:29.685Z,100077.16
2019-04-01T20:24:00.079Z,100076.42
2019-04-01T20:26:30.525Z,100073.04
2019-04-01T20:29:02.089Z,100070.89
2019-04-01T20:31:33.155Z,100074.30
2019-04-01T20:34:04.374Z,100069.59
2019-04-01T20:36:35.581Z,100072.23
2019-04-01T20:39:08.764Z,100074.85
2019-04-01T20:41:39.132Z,100069.66
2019-04-01T20:44:09.457Z,100070.55
2019-04-01T20:46:39.818Z,100070.15
2019-04-01T20:49:11.131Z,100067.33
2019-04-01T20:51:42.786Z,100062.17
2019-04-01T20:54:16.630Z,100060.16
2019-04-01T20:56:48.201Z,100064.11
2019-04-01T20:59:19.290Z,100060.70
2019-04-01T21:01:49.669Z,100059.01
2019-04-01T21:04:20.331Z,100052.50
2019-04-01T21:06:50.637Z,100054.28
2019-04-01T21:09:20.910Z,100058.20
2019-04-01T21:11:51.312Z,100048.23
2019-04-01T21:14:22.664Z,100050.55
2019-04-01T21:16:53.178Z,100048.48
2019-04-01T21:19:23.562Z,100046.05
2019-04-01T21:21:53.956Z,100042.65
2019-04-01T21:24:24.768Z,100043.06
2019-04-01T21:26:55.935Z,100044.26
2019-04-01T21:29:27.619Z,100039.06
2019-04-01T21:31:58.004Z,100036.13
2019-04-01T21:34:28.406Z,100038.22
2019-04-01T21:36:59.205Z,100036.92
2019-04-01T21:39:30.251Z,100033.87
2019-04-01T21:42:01.123Z,100031.09
2019-04-01T21:44:31.486Z,100026.27
2019-04-01T21:47:02.219Z,100030.80
2019-04-01T21:49:32.569Z,100029.51
2019-04-01T21:52:04.349Z,100021.38
2019-04-01T21:54:34.856Z,100018.10
2019-04-01T21:57:05.252Z,100015.95
2019-04-01T22:00:00.500Z,100020.27
2019-04-01T22:02:36.153Z,100020.04
2019-04-01T22:05:05.510Z,100018.83
2019-04-01T22:07:35.971Z,100014.66
2019-04-01T22:10:07.385Z,100018.57
2019-04-01T22:12:40.060Z,100017.27
2019-04-01T22:15:12.762Z,100016.04
2019-04-01T22:17:43.094Z,100017.34
2019-04-01T22:20:13.696Z,100010.50
2019-04-01T22:22:44.358Z,100006.20
2019-04-01T22:25:14.757Z,100007.11
2019-04-01T22:27:45.135Z,100009.23
2019-04-01T22:30:17.171Z,100002.52
2019-04-01T22:32:48.308Z,100000.48
2019-04-01T22:35:18.697Z,100004.42
2019-04-01T22:37:49.080Z,100002.03
2019-04-01T22:40:19.469Z,99996.85
2019-04-01T22:42:50.071Z,99998.58
2019-04-01T22:45:20.650Z,99997.31
2019-04-01T22:47:51.841Z,99994.28
2019-04-01T22:50:22.217Z,99990.95
2019-04-01T22:52:52.627Z,99985.28
2019-04-01T22:55:22.984Z,99989.64
2019-04-01T22:57:53.724Z,99982.69
2019-04-01T23:00:24.258Z,99983.54
2019-04-01T23:02:54.620Z,99984.00
2019-04-01T23:05:25.009Z,99978.81
2019-04-01T23:07:55.396Z,99969.62
2019-04-01T23:10:27.191Z,99970.02
2019-04-01T23:12:58.053Z,99967.45
2019-04-01T23:15:28.382Z,99961.45
2019-04-01T23:17:58.740Z,99959.66
2019-04-01T23:20:29.391Z,99962.20
2019-04-01T23:22:59.761Z,99960.06
2019-04-01T23:25:30.170Z,99957.88
2019-04-01T23:28:00.535Z,99952.30
2019-04-01T23:30:30.969Z,99958.07
2019-04-01T23:33:01.614Z,99946.42
2019-04-01T23:35:32.026Z,99956.07
2019-04-01T23:38:02.355Z,99952.27
2019-04-01T23:40:32.884Z,99952.77
2019-04-01T23:43:03.587Z,99948.64
2019-04-01T23:45:33.986Z,99947.73
2019-04-01T23:48:04.716Z,99937.08
2019-04-01T23:50:35.825Z,99937.12
2019-04-01T23:53:06.313Z,99937.09
2019-04-01T23:55:36.594Z,99938.86
2019-04-01T23:58:07.522Z,99929.44
